sensor_id;sensor_type;location;lat;lon;timestamp;P1;P2;P0
68698;PMS7003;55680;48.850;2.310;2023-02-15T00:01:23;10.00;8.33;6.33
68698;PMS7003;55680;48.850;2.310;2023-02-15T00:03:49;15.75;12.50;8.00
68698;PMS7003;55680;48.850;2.310;2023-02-15T00:06:14;13.25;9.00;4.00
68698;PMS7003;55680;48.850;2.310;2023-02-15T00:08:40;8.50;8.50;6.00
68698;PMS7003;55680;48.850;2.310;2023-02-15T00:11:06;48.00;39.75;25.75
68698;PMS7003;55680;48.850;2.310;2023-02-15T00:13:32;12.25;10.50;6.50
68698;PMS7003;55680;48.850;2.310;2023-02-15T00:16:03;14.00;10.50;6.50
68698;PMS7003;55680;48.850;2.310;2023-02-15T00:18:29;12.75;8.00;6.00
68698;PMS7003;55680;48.850;2.310;2023-02-15T00:20:54;13.25;9.50;5.50
68698;PMS7003;55680;48.850;2.310;2023-02-15T00:23:19;6.00;6.00;4.00
68698;PMS7003;55680;48.850;2.310;2023-02-15T00:25:45;6.00;3.33;3.00
68698;PMS7003;55680;48.850;2.310;2023-02-15T00:28:10;9.33;6.00;6.00
68698;PMS7003;55680;48.850;2.310;2023-02-15T00:30:35;9.67;6.33;4.00
68698;PMS7003;55680;48.850;2.310;2023-02-15T00:33:00;7.00;7.00;6.00
68698;PMS7003;55680;48.850;2.310;2023-02-15T00:35:25;14.33;7.67;6.00
68698;PMS7003;55680;48.850;2.310;2023-02-15T00:37:51;6.00;6.00;3.00
68698;PMS7003;55680;48.850;2.310;2023-02-15T00:40:17;10.50;7.00;4.00
68698;PMS7003;55680;48.850;2.310;2023-02-15T00:42:42;10.67;8.33;4.67
68698;PMS7003;55680;48.850;2.310;2023-02-15T00:45:08;17.33;12.67;9.00
68698;PMS7003;55680;48.850;2.310;2023-02-15T00:47:33;19.25;15.25;10.00
68698;PMS7003;55680;48.850;2.310;2023-02-15T00:49:58;15.67;11.33;7.00
68698;PMS7003;55680;48.850;2.310;2023-02-15T00:52:23;16.00;6.00;4.00
68698;PMS7003;55680;48.850;2.310;2023-02-15T00:54:49;14.33;12.00;6.00
68698;PMS7003;55680;48.850;2.310;2023-02-15T00:57:14;14.33;12.33;7.00
68698;PMS7003;55680;48.850;2.310;2023-02-15T00:59:39;15.00;12.00;8.33
68698;PMS7003;55680;48.850;2.310;2023-02-15T01:02:04;8.00;8.00;4.50
68698;PMS7003;55680;48.850;2.310;2023-02-15T01:04:30;22.00;10.00;7.00
68698;PMS7003;55680;48.850;2.310;2023-02-15T01:06:55;14.33;10.00;7.00
68698;PMS7003;55680;48.850;2.310;2023-02-15T01:09:20;9.33;7.00;6.33
68698;PMS7003;55680;48.850;2.310;2023-02-15T01:11:45;16.00;12.50;9.00
68698;PMS7003;55680;48.850;2.310;2023-02-15T01:14:10;52.67;41.33;27.67
68698;PMS7003;55680;48.850;2.310;2023-02-15T01:16:36;55.33;42.00;26.00
68698;PMS7003;55680;48.850;2.310;2023-02-15T01:19:01;54.67;43.00;28.33
68698;PMS7003;55680;48.850;2.310;2023-02-15T01:21:27;21.00;15.25;7.00
68698;PMS7003;55680;48.850;2.310;2023-02-15T01:23:52;14.67;9.67;6.33
68698;PMS7003;55680;48.850;2.310;2023-02-15T01:26:18;9.75;9.75;6.00
68698;PMS7003;55680;48.850;2.310;2023-02-15T01:28:44;22.25;18.00;9.75
68698;PMS7003;55680;48.850;2.310;2023-02-15T01:31:10;22.00;17.00;12.00
68698;PMS7003;55680;48.850;2.310;2023-02-15T01:33:36;13.00;13.00;9.75
68698;PMS7003;55680;48.850;2.310;2023-02-15T01:36:02;20.25;16.25;11.50
68698;PMS7003;55680;48.850;2.310;2023-02-15T01:38:27;15.75;14.75;11.50
68698;PMS7003;55680;48.850;2.310;2023-02-15T01:40:53;19.67;13.00;9.00
68698;PMS7003;55680;48.850;2.310;2023-02-15T01:43:18;16.00;16.00;11.33
68698;PMS7003;55680;48.850;2.310;2023-02-15T01:45:44;17.00;12.50;9.00
68698;PMS7003;55680;48.850;2.310;2023-02-15T01:50:44;13.75;12.25;6.25
68698;PMS7003;55680;48.850;2.310;2023-02-15T01:53:13;52.00;41.75;27.75
68698;PMS7003;55680;48.850;2.310;2023-02-15T01:55:42;55.00;42.50;27.25
68698;PMS7003;55680;48.850;2.310;2023-02-15T01:58:09;28.25;13.75;12.75
68698;PMS7003;55680;48.850;2.310;2023-02-15T02:00:34;18.00;13.75;7.50
68698;PMS7003;55680;48.850;2.310;2023-02-15T02:03:00;19.50;11.25;7.00
68698;PMS7003;55680;48.850;2.310;2023-02-15T02:05:26;24.75;18.00;13.00
68698;PMS7003;55680;48.850;2.310;2023-02-15T02:07:52;20.50;17.00;10.50
68698;PMS7003;55680;48.850;2.310;2023-02-15T02:10:20;13.50;7.00;6.50
68698;PMS7003;55680;48.850;2.310;2023-02-15T02:12:48;13.50;10.25;6.50
68698;PMS7003;55680;48.850;2.310;2023-02-15T02:15:14;9.25;6.50;3.75
68698;PMS7003;55680;48.850;2.310;2023-02-15T02:18:41;11.50;6.50;4.00
68698;PMS7003;55680;48.850;2.310;2023-02-15T02:31:03;26.00;17.50;9.00
68698;PMS7003;55680;48.850;2.310;2023-02-15T02:36:14;10.00;9.00;6.67
68698;PMS7003;55680;48.850;2.310;2023-02-15T02:41:31;12.75;9.25;7.00
68698;PMS7003;55680;48.850;2.310;2023-02-15T02:46:51;10.00;6.25;4.00
68698;PMS7003;55680;48.850;2.310;2023-02-15T02:49:31;8.50;6.00;4.00
68698;PMS7003;55680;48.850;2.310;2023-02-15T02:52:00;24.25;12.25;8.00
68698;PMS7003;55680;48.850;2.310;2023-02-15T02:54:25;17.00;11.75;7.50
68698;PMS7003;55680;48.850;2.310;2023-02-15T02:56:51;18.50;12.00;7.00
68698;PMS7003;55680;48.850;2.310;2023-02-15T02:59:19;18.75;10.00;6.25
68698;PMS7003;55680;48.850;2.310;2023-02-15T03:04:31;14.75;7.50;4.00
68698;PMS7003;55680;48.850;2.310;2023-02-15T03:06:58;9.50;9.50;7.25
68698;PMS7003;55680;48.850;2.310;2023-02-15T03:09:27;9.50;9.50;6.50
68698;PMS7003;55680;48.850;2.310;2023-02-15T03:11:59;22.00;15.00;9.00
68698;PMS7003;55680;48.850;2.310;2023-02-15T03:14:25;9.50;9.25;6.25
68698;PMS7003;55680;48.850;2.310;2023-02-15T03:16:50;16.00;12.75;7.50
68698;PMS7003;55680;48.850;2.310;2023-02-15T03:19:22;57.25;45.50;29.00
68698;PMS7003;55680;48.850;2.310;2023-02-15T03:21:49;17.25;15.75;10.00
68698;PMS7003;55680;48.850;2.310;2023-02-15T03:24:22;55.50;42.25;29.00
68698;PMS7003;55680;48.850;2.310;2023-02-15T03:26:50;63.25;47.50;31.00
68698;PMS7003;55680;48.850;2.310;2023-02-15T03:29:16;15.50;14.25;11.50
68698;PMS7003;55680;48.850;2.310;2023-02-15T03:31:43;32.75;22.00;14.00
68698;PMS7003;55680;48.850;2.310;2023-02-15T03:34:11;27.00;18.25;13.00
68698;PMS7003;55680;48.850;2.310;2023-02-15T03:42:01;25.50;19.50;12.00
68698;PMS7003;55680;48.850;2.310;2023-02-15T03:44:29;31.25;21.50;13.25
68698;PMS7003;55680;48.850;2.310;2023-02-15T03:47:00;31.25;22.25;14.50
68698;PMS7003;55680;48.850;2.310;2023-02-15T03:49:29;24.75;13.75;9.50
68698;PMS7003;55680;48.850;2.310;2023-02-15T03:51:56;21.75;18.00;12.00
68698;PMS7003;55680;48.850;2.310;2023-02-15T03:57:07;25.50;18.25;12.00
68698;PMS7003;55680;48.850;2.310;2023-02-15T03:59:52;26.25;23.75;12.50
68698;PMS7003;55680;48.850;2.310;2023-02-15T04:02:38;15.00;14.50;9.50
68698;PMS7003;55680;48.850;2.310;2023-02-15T04:05:05;24.50;18.00;12.00
68698;PMS7003;55680;48.850;2.310;2023-02-15T04:07:30;58.67;46.00;29.33
68698;PMS7003;55680;48.850;2.310;2023-02-15T04:09:55;23.33;17.33;11.33
68698;PMS7003;55680;48.850;2.310;2023-02-15T04:12:39;25.25;21.50;13.25
68698;PMS7003;55680;48.850;2.310;2023-02-15T04:15:04;15.50;13.00;9.25
68698;PMS7003;55680;48.850;2.310;2023-02-15T04:17:48;17.25;16.50;12.00
68698;PMS7003;55680;48.850;2.310;2023-02-15T04:20:13;25.33;19.33;12.00
68698;PMS7003;55680;48.850;2.310;2023-02-15T04:22:57;36.00;26.00;17.00
68698;PMS7003;55680;48.850;2.310;2023-02-15T04:25:41;35.00;30.75;19.50
68698;PMS7003;55680;48.850;2.310;2023-02-15T04:28:06;31.00;21.67;14.33
68698;PMS7003;55680;48.850;2.310;2023-02-15T04:30:32;21.25;17.00;10.00
68698;PMS7003;55680;48.850;2.310;2023-02-15T04:32:57;22.00;15.33;7.00
68698;PMS7003;55680;48.850;2.310;2023-02-15T04:35:22;62.33;47.67;29.67
68698;PMS7003;55680;48.850;2.310;2023-02-15T04:37:49;63.25;47.25;29.00
68698;PMS7003;55680;48.850;2.310;2023-02-15T04:40:14;64.00;48.00;32.00
68698;PMS7003;55680;48.850;2.310;2023-02-15T04:42:40;25.50;25.50;17.75
68698;PMS7003;55680;48.850;2.310;2023-02-15T04:45:05;34.00;24.67;16.00
68698;PMS7003;55680;48.850;2.310;2023-02-15T04:47:31;39.75;28.50;14.00
68698;PMS7003;55680;48.850;2.310;2023-02-15T04:49:56;35.00;26.67;13.67
68698;PMS7003;55680;48.850;2.310;2023-02-15T04:52:21;19.67;17.33;9.00
68698;PMS7003;55680;48.850;2.310;2023-02-15T04:54:46;26.75;21.25;11.50
68698;PMS7003;55680;48.850;2.310;2023-02-15T04:57:12;21.33;15.33;9.33
68698;PMS7003;55680;48.850;2.310;2023-02-15T04:59:37;16.75;15.25;9.00
68698;PMS7003;55680;48.850;2.310;2023-02-15T05:02:03;19.00;15.33;9.00
68698;PMS7003;55680;48.850;2.310;2023-02-15T05:04:28;27.25;18.75;12.25
68698;PMS7003;55680;48.850;2.310;2023-02-15T05:06:53;22.00;18.67;10.00
68698;PMS7003;55680;48.850;2.310;2023-02-15T05:09:18;19.25;13.50;9.25
68698;PMS7003;55680;48.850;2.310;2023-02-15T05:11:44;22.33;21.00;12.67
68698;PMS7003;55680;48.850;2.310;2023-02-15T05:14:09;56.67;44.00;27.67
68698;PMS7003;55680;48.850;2.310;2023-02-15T05:16:35;22.00;16.00;11.50
68698;PMS7003;55680;48.850;2.310;2023-02-15T05:19:00;17.25;16.25;12.00
68698;PMS7003;55680;48.850;2.310;2023-02-15T05:21:26;24.33;23.33;12.00
68698;PMS7003;55680;48.850;2.310;2023-02-15T05:23:51;28.33;20.67;11.33
68698;PMS7003;55680;48.850;2.310;2023-02-15T05:26:17;12.25;10.00;9.00
68698;PMS7003;55680;48.850;2.310;2023-02-15T05:29:02;22.00;18.50;12.00
68698;PMS7003;55680;48.850;2.310;2023-02-15T05:31:27;18.33;16.67;10.00
68698;PMS7003;55680;48.850;2.310;2023-02-15T05:33:52;27.00;17.33;10.67
68698;PMS7003;55680;48.850;2.310;2023-02-15T05:36:17;11.00;6.75;3.00
68698;PMS7003;55680;48.850;2.310;2023-02-15T05:38:42;27.33;20.33;12.00
68698;PMS7003;55680;48.850;2.310;2023-02-15T05:41:08;24.00;19.00;13.00
68698;PMS7003;55680;48.850;2.310;2023-02-15T05:43:34;23.25;18.50;10.00
68698;PMS7003;55680;48.850;2.310;2023-02-15T05:46:00;27.00;11.50;9.00
68698;PMS7003;55680;48.850;2.310;2023-02-15T05:48:25;29.00;21.75;12.75
68698;PMS7003;55680;48.850;2.310;2023-02-15T05:50:57;34.25;26.75;15.50
68698;PMS7003;55680;48.850;2.310;2023-02-15T05:53:23;27.00;19.50;12.25
68698;PMS7003;55680;48.850;2.310;2023-02-15T05:55:48;21.33;16.67;9.00
68698;PMS7003;55680;48.850;2.310;2023-02-15T05:58:14;32.33;21.33;12.33
68698;PMS7003;55680;48.850;2.310;2023-02-15T06:00:39;26.50;18.75;11.75
68698;PMS7003;55680;48.850;2.310;2023-02-15T06:03:04;22.33;15.33;10.00
68698;PMS7003;55680;48.850;2.310;2023-02-15T06:05:30;33.00;25.33;14.33
68698;PMS7003;55680;48.850;2.310;2023-02-15T06:07:55;20.00;15.50;8.50
68698;PMS7003;55680;48.850;2.310;2023-02-15T06:10:20;26.33;19.00;12.00
68698;PMS7003;55680;48.850;2.310;2023-02-15T06:12:45;65.00;49.75;30.50
68698;PMS7003;55680;48.850;2.310;2023-02-15T06:15:11;61.67;47.00;31.00
68698;PMS7003;55680;48.850;2.310;2023-02-15T06:17:36;61.00;49.00;32.00
68698;PMS7003;55680;48.850;2.310;2023-02-15T06:20:01;21.00;17.33;12.00
68698;PMS7003;55680;48.850;2.310;2023-02-15T06:22:26;27.00;19.50;9.25
68698;PMS7003;55680;48.850;2.310;2023-02-15T06:24:51;36.00;23.33;15.00
68698;PMS7003;55680;48.850;2.310;2023-02-15T06:27:17;23.33;18.00;12.00
68698;PMS7003;55680;48.850;2.310;2023-02-15T06:29:42;41.33;22.33;13.67
68698;PMS7003;55680;48.850;2.310;2023-02-15T06:32:07;36.67;25.00;15.33
68698;PMS7003;55680;48.850;2.310;2023-02-15T06:34:32;28.00;22.67;14.33
68698;PMS7003;55680;48.850;2.310;2023-02-15T06:36:58;29.67;19.00;10.00
68698;PMS7003;55680;48.850;2.310;2023-02-15T06:39:23;34.25;26.25;15.75
68698;PMS7003;55680;48.850;2.310;2023-02-15T06:41:48;41.33;30.33;18.33
68698;PMS7003;55680;48.850;2.310;2023-02-15T06:44:13;37.33;23.00;13.00
68698;PMS7003;55680;48.850;2.310;2023-02-15T06:46:39;29.50;23.00;15.25
68698;PMS7003;55680;48.850;2.310;2023-02-15T06:49:04;38.25;26.50;15.75
68698;PMS7003;55680;48.850;2.310;2023-02-15T06:51:29;36.67;21.00;10.00
68698;PMS7003;55680;48.850;2.310;2023-02-15T06:53:55;31.67;25.67;16.00
68698;PMS7003;55680;48.850;2.310;2023-02-15T06:56:20;28.67;24.33;13.67
68698;PMS7003;55680;48.850;2.310;2023-02-15T06:58:45;41.00;28.33;16.00
68698;PMS7003;55680;48.850;2.310;2023-02-15T07:01:11;33.33;20.67;11.33
68698;PMS7003;55680;48.850;2.310;2023-02-15T07:03:36;26.50;22.25;14.00
68698;PMS7003;55680;48.850;2.310;2023-02-15T07:06:02;23.67;18.33;10.67
68698;PMS7003;55680;48.850;2.310;2023-02-15T07:08:30;32.00;21.25;13.00
68698;PMS7003;55680;48.850;2.310;2023-02-15T07:10:55;42.67;29.33;15.33
68698;PMS7003;55680;48.850;2.310;2023-02-15T07:13:44;32.75;22.50;15.00
68698;PMS7003;55680;48.850;2.310;2023-02-15T07:16:09;34.00;24.25;16.00
68698;PMS7003;55680;48.850;2.310;2023-02-15T07:18:34;25.75;16.50;10.00
68698;PMS7003;55680;48.850;2.310;2023-02-15T07:21:00;36.00;26.00;15.00
68698;PMS7003;55680;48.850;2.310;2023-02-15T07:23:25;34.67;28.67;21.00
68698;PMS7003;55680;48.850;2.310;2023-02-15T07:25:56;71.00;53.75;34.00
68698;PMS7003;55680;48.850;2.310;2023-02-15T07:28:21;30.25;27.25;14.50
68698;PMS7003;55680;48.850;2.310;2023-02-15T07:30:47;48.75;29.00;17.50
68698;PMS7003;55680;48.850;2.310;2023-02-15T07:33:13;37.75;24.75;16.00
68698;PMS7003;55680;48.850;2.310;2023-02-15T07:35:59;53.50;33.50;19.50
68698;PMS7003;55680;48.850;2.310;2023-02-15T07:38:26;26.50;26.50;18.25
68698;PMS7003;55680;48.850;2.310;2023-02-15T07:40:51;27.75;21.50;13.50
68698;PMS7003;55680;48.850;2.310;2023-02-15T07:43:22;27.75;25.00;13.00
68698;PMS7003;55680;48.850;2.310;2023-02-15T07:45:47;41.33;28.00;16.00
68698;PMS7003;55680;48.850;2.310;2023-02-15T07:48:12;30.67;24.00;15.00
68698;PMS7003;55680;48.850;2.310;2023-02-15T07:50:38;75.67;56.00;35.33
68698;PMS7003;55680;48.850;2.310;2023-02-15T07:53:03;36.33;27.33;21.00
68698;PMS7003;55680;48.850;2.310;2023-02-15T07:55:28;26.00;19.00;16.50
68698;PMS7003;55680;48.850;2.310;2023-02-15T07:57:53;29.33;28.67;20.33
68698;PMS7003;55680;48.850;2.310;2023-02-15T08:00:20;21.00;18.75;10.00
68698;PMS7003;55680;48.850;2.310;2023-02-15T08:02:50;40.75;30.50;20.00
68698;PMS7003;55680;48.850;2.310;2023-02-15T08:05:35;27.75;24.25;14.00
68698;PMS7003;55680;48.850;2.310;2023-02-15T08:08:01;47.50;35.50;24.00
68698;PMS7003;55680;48.850;2.310;2023-02-15T08:10:26;36.33;29.33;19.67
68698;PMS7003;55680;48.850;2.310;2023-02-15T08:13:11;32.00;30.00;20.75
68698;PMS7003;55680;48.850;2.310;2023-02-15T08:15:36;67.00;51.00;34.00
68698;PMS7003;55680;48.850;2.310;2023-02-15T08:18:01;49.00;44.33;24.00
68698;PMS7003;55680;48.850;2.310;2023-02-15T08:20:27;23.33;15.33;1.00
68698;PMS7003;55680;48.850;2.310;2023-02-15T08:22:52;70.25;54.00;34.00
68698;PMS7003;55680;48.850;2.310;2023-02-15T08:25:17;41.25;32.25;19.75
68698;PMS7003;55680;48.850;2.310;2023-02-15T08:27:43;72.33;58.33;35.00
68698;PMS7003;55680;48.850;2.310;2023-02-15T08:30:08;72.00;55.33;35.00
68698;PMS7003;55680;48.850;2.310;2023-02-15T08:32:33;67.00;51.50;34.00
68698;PMS7003;55680;48.850;2.310;2023-02-15T08:34:58;68.33;52.33;35.00
68698;PMS7003;55680;48.850;2.310;2023-02-15T08:37:24;44.00;34.67;24.00
68698;PMS7003;55680;48.850;2.310;2023-02-15T08:39:50;45.50;39.00;28.00
68698;PMS7003;55680;48.850;2.310;2023-02-15T08:42:16;57.00;43.50;26.25
68698;PMS7003;55680;48.850;2.310;2023-02-15T08:44:41;45.67;34.00;22.67
68698;PMS7003;55680;48.850;2.310;2023-02-15T08:47:07;36.33;29.33;18.00
68698;PMS7003;55680;48.850;2.310;2023-02-15T08:49:32;62.00;51.00;33.00
68698;PMS7003;55680;48.850;2.310;2023-02-15T08:51:57;74.67;57.33;36.67
68698;PMS7003;55680;48.850;2.310;2023-02-15T08:54:22;18.33;16.67;7.00
68698;PMS7003;55680;48.850;2.310;2023-02-15T08:56:48;33.50;25.00;15.25
68698;PMS7003;55680;48.850;2.310;2023-02-15T08:59:22;17.00;12.00;7.00
68698;PMS7003;55680;48.850;2.310;2023-02-15T09:01:48;29.50;23.50;16.00
68698;PMS7003;55680;48.850;2.310;2023-02-15T09:04:15;29.75;25.25;16.50
68698;PMS7003;55680;48.850;2.310;2023-02-15T09:06:41;31.00;23.75;16.00
68698;PMS7003;55680;48.850;2.310;2023-02-15T09:09:08;51.00;43.50;27.00
68698;PMS7003;55680;48.850;2.310;2023-02-15T09:11:34;29.67;26.33;18.33
68698;PMS7003;55680;48.850;2.310;2023-02-15T09:14:01;22.75;15.00;9.00
68698;PMS7003;55680;48.850;2.310;2023-02-15T09:16:27;38.50;31.75;18.75
68698;PMS7003;55680;48.850;2.310;2023-02-15T09:18:53;28.50;26.25;15.75
68698;PMS7003;55680;48.850;2.310;2023-02-15T09:21:20;42.00;30.75;21.25
68698;PMS7003;55680;48.850;2.310;2023-02-15T09:23:47;39.25;31.00;18.50
68698;PMS7003;55680;48.850;2.310;2023-02-15T09:26:14;28.00;24.75;16.00
68698;PMS7003;55680;48.850;2.310;2023-02-15T09:28:40;48.75;40.25;23.00
68698;PMS7003;55680;48.850;2.310;2023-02-15T09:31:06;35.50;27.50;17.50
68698;PMS7003;55680;48.850;2.310;2023-02-15T09:33:33;44.00;40.50;30.00
68698;PMS7003;55680;48.850;2.310;2023-02-15T09:35:58;30.00;27.50;18.00
68698;PMS7003;55680;48.850;2.310;2023-02-15T09:38:23;42.67;28.67;13.00
68698;PMS7003;55680;48.850;2.310;2023-02-15T09:40:51;37.67;33.33;21.33
68698;PMS7003;55680;48.850;2.310;2023-02-15T09:43:22;48.50;36.50;23.50
68698;PMS7003;55680;48.850;2.310;2023-02-15T09:50:47;35.33;29.33;16.00
68698;PMS7003;55680;48.850;2.310;2023-02-15T09:53:33;63.75;41.50;25.00
68698;PMS7003;55680;48.850;2.310;2023-02-15T10:08:48;39.25;33.50;21.00
68698;PMS7003;55680;48.850;2.310;2023-02-15T10:16:45;60.00;48.25;32.50
68698;PMS7003;55680;48.850;2.310;2023-02-15T10:19:27;34.50;29.00;22.25
68698;PMS7003;55680;48.850;2.310;2023-02-15T10:21:58;27.75;24.25;15.75
68698;PMS7003;55680;48.850;2.310;2023-02-15T10:24:42;47.75;42.75;22.50
68698;PMS7003;55680;48.850;2.310;2023-02-15T10:27:13;44.00;37.50;26.00
68698;PMS7003;55680;48.850;2.310;2023-02-15T10:29:39;66.50;49.25;31.00
68698;PMS7003;55680;48.850;2.310;2023-02-15T10:32:24;57.50;44.50;28.00
68698;PMS7003;55680;48.850;2.310;2023-02-15T10:37:34;49.75;41.50;26.00
68698;PMS7003;55680;48.850;2.310;2023-02-15T10:40:13;69.25;51.00;32.25
68698;PMS7003;55680;48.850;2.310;2023-02-15T10:42:57;79.25;57.75;38.00
68698;PMS7003;55680;48.850;2.310;2023-02-15T10:50:44;69.75;51.25;31.25
68698;PMS7003;55680;48.850;2.310;2023-02-15T10:55:55;73.25;53.75;34.75
68698;PMS7003;55680;48.850;2.310;2023-02-15T11:00:52;56.00;47.25;28.00
68698;PMS7003;55680;48.850;2.310;2023-02-15T11:03:29;75.50;55.00;36.25
68698;PMS7003;55680;48.850;2.310;2023-02-15T11:09:05;69.00;54.00;33.00
68698;PMS7003;55680;48.850;2.310;2023-02-15T11:11:35;79.00;58.00;37.00
68698;PMS7003;55680;48.850;2.310;2023-02-15T11:14:05;60.75;47.50;29.50
68698;PMS7003;55680;48.850;2.310;2023-02-15T11:16:39;60.50;45.25;26.75
68698;PMS7003;55680;48.850;2.310;2023-02-15T11:21:39;73.25;56.00;36.00
68698;PMS7003;55680;48.850;2.310;2023-02-15T11:24:12;71.75;56.00;36.00
68698;PMS7003;55680;48.850;2.310;2023-02-15T11:26:42;72.00;56.00;37.25
68698;PMS7003;55680;48.850;2.310;2023-02-15T11:29:10;76.75;57.00;36.50
68698;PMS7003;55680;48.850;2.310;2023-02-15T11:31:44;76.25;62.25;37.00
68698;PMS7003;55680;48.850;2.310;2023-02-15T11:34:17;70.25;53.50;35.00
68698;PMS7003;55680;48.850;2.310;2023-02-15T11:36:45;72.50;53.75;36.00
68698;PMS7003;55680;48.850;2.310;2023-02-15T11:39:14;75.00;57.75;38.50
68698;PMS7003;55680;48.850;2.310;2023-02-15T11:41:41;65.50;52.00;36.00
68698;PMS7003;55680;48.850;2.310;2023-02-15T11:44:14;71.50;53.75;34.25
68698;PMS7003;55680;48.850;2.310;2023-02-15T11:46:41;71.00;55.00;35.25
68698;PMS7003;55680;48.850;2.310;2023-02-15T11:49:10;69.25;49.50;31.00
68698;PMS7003;55680;48.850;2.310;2023-02-15T11:51:45;68.75;53.50;36.00
68698;PMS7003;55680;48.850;2.310;2023-02-15T11:54:11;67.67;51.33;33.00
68698;PMS7003;55680;48.850;2.310;2023-02-15T11:56:36;76.33;57.67;37.67
68698;PMS7003;55680;48.850;2.310;2023-02-15T11:59:03;69.50;50.75;33.00
68698;PMS7003;55680;48.850;2.310;2023-02-15T12:01:33;74.00;55.25;35.00
68698;PMS7003;55680;48.850;2.310;2023-02-15T12:06:46;71.50;54.25;35.00
68698;PMS7003;55680;48.850;2.310;2023-02-15T12:11:50;67.00;51.00;33.00
68698;PMS7003;55680;48.850;2.310;2023-02-15T12:14:15;71.67;55.67;36.33
68698;PMS7003;55680;48.850;2.310;2023-02-15T12:19:13;71.50;54.75;33.50
68698;PMS7003;55680;48.850;2.310;2023-02-15T12:21:46;75.25;55.75;35.00
68698;PMS7003;55680;48.850;2.310;2023-02-15T12:26:39;64.50;51.75;33.75
68698;PMS7003;55680;48.850;2.310;2023-02-15T12:29:17;64.75;51.25;32.00
68698;PMS7003;55680;48.850;2.310;2023-02-15T12:31:47;70.00;52.50;32.00
68698;PMS7003;55680;48.850;2.310;2023-02-15T12:34:22;57.50;45.50;29.00
68698;PMS7003;55680;48.850;2.310;2023-02-15T12:36:49;66.25;51.75;31.00
68698;PMS7003;55680;48.850;2.310;2023-02-15T12:39:20;61.50;48.00;28.75
68698;PMS7003;55680;48.850;2.310;2023-02-15T12:41:56;64.25;47.00;31.25
68698;PMS7003;55680;48.850;2.310;2023-02-15T12:44:29;48.00;27.50;10.25
68698;PMS7003;55680;48.850;2.310;2023-02-15T12:46:59;69.75;54.75;34.25
68698;PMS7003;55680;48.850;2.310;2023-02-15T12:49:25;62.75;49.00;31.00
68698;PMS7003;55680;48.850;2.310;2023-02-15T12:56:47;69.50;53.50;33.75
68698;PMS7003;55680;48.850;2.310;2023-02-15T12:59:12;68.25;52.25;34.00
68698;PMS7003;55680;48.850;2.310;2023-02-15T13:01:39;73.25;53.00;33.00
68698;PMS7003;55680;48.850;2.310;2023-02-15T13:04:05;69.50;54.75;35.25
68698;PMS7003;55680;48.850;2.310;2023-02-15T13:06:32;71.50;52.75;34.00
68698;PMS7003;55680;48.850;2.310;2023-02-15T13:09:14;68.75;52.00;34.00
68698;PMS7003;55680;48.850;2.310;2023-02-15T13:11:40;69.25;53.25;35.00
68698;PMS7003;55680;48.850;2.310;2023-02-15T13:14:22;75.00;58.25;36.25
68698;PMS7003;55680;48.850;2.310;2023-02-15T13:16:51;62.25;49.50;31.75
68698;PMS7003;55680;48.850;2.310;2023-02-15T13:19:19;65.50;49.50;32.50
68698;PMS7003;55680;48.850;2.310;2023-02-15T13:21:48;70.50;55.00;36.00
68698;PMS7003;55680;48.850;2.310;2023-02-15T13:26:43;68.75;53.75;34.25
68698;PMS7003;55680;48.850;2.310;2023-02-15T13:29:13;65.75;47.75;31.50
68698;PMS7003;55680;48.850;2.310;2023-02-15T13:31:40;52.75;44.00;26.00
68698;PMS7003;55680;48.850;2.310;2023-02-15T13:34:09;65.75;50.25;31.00
68698;PMS7003;55680;48.850;2.310;2023-02-15T13:41:33;69.50;52.50;34.50
68698;PMS7003;55680;48.850;2.310;2023-02-15T13:46:39;67.00;51.50;34.00
68698;PMS7003;55680;48.850;2.310;2023-02-15T13:51:37;56.75;42.50;30.00
68698;PMS7003;55680;48.850;2.310;2023-02-15T13:57:18;72.50;53.50;35.00
68698;PMS7003;55680;48.850;2.310;2023-02-15T14:02:52;64.75;51.00;33.50
68698;PMS7003;55680;48.850;2.310;2023-02-15T14:05:38;62.25;50.00;33.00
68698;PMS7003;55680;48.850;2.310;2023-02-15T14:08:11;67.75;50.50;32.00
68698;PMS7003;55680;48.850;2.310;2023-02-15T14:13:15;60.00;46.00;31.25
68698;PMS7003;55680;48.850;2.310;2023-02-15T14:31:42;59.25;47.25;31.00
68698;PMS7003;55680;48.850;2.310;2023-02-15T14:34:52;64.50;49.25;32.00
68698;PMS7003;55680;48.850;2.310;2023-02-15T14:36:56;65.75;51.00;33.00
68698;PMS7003;55680;48.850;2.310;2023-02-15T14:44:41;61.75;47.00;30.00
68698;PMS7003;55680;48.850;2.310;2023-02-15T14:47:09;60.50;46.00;31.75
68698;PMS7003;55680;48.850;2.310;2023-02-15T14:49:37;66.50;51.75;33.50
68698;PMS7003;55680;48.850;2.310;2023-02-15T14:52:03;65.25;49.25;30.75
68698;PMS7003;55680;48.850;2.310;2023-02-15T14:59:26;55.75;43.75;27.50
68698;PMS7003;55680;48.850;2.310;2023-02-15T15:01:55;64.75;50.00;32.50
68698;PMS7003;55680;48.850;2.310;2023-02-15T15:04:32;53.75;42.75;27.00
68698;PMS7003;55680;48.850;2.310;2023-02-15T15:07:03;65.75;50.50;31.75
68698;PMS7003;55680;48.850;2.310;2023-02-15T15:09:29;68.00;50.00;31.00
68698;PMS7003;55680;48.850;2.310;2023-02-15T15:14:47;70.00;53.50;34.00
68698;PMS7003;55680;48.850;2.310;2023-02-15T15:17:14;62.50;46.50;31.00
68698;PMS7003;55680;48.850;2.310;2023-02-15T15:22:24;59.50;48.00;31.25
68698;PMS7003;55680;48.850;2.310;2023-02-15T15:24:57;62.00;49.75;32.25
68698;PMS7003;55680;48.850;2.310;2023-02-15T15:32:47;65.75;45.75;30.50
68698;PMS7003;55680;48.850;2.310;2023-02-15T15:48:36;49.00;37.25;25.25
68698;PMS7003;55680;48.850;2.310;2023-02-15T15:53:43;62.75;50.00;33.75
68698;PMS7003;55680;48.850;2.310;2023-02-15T15:56:13;63.50;49.75;32.50
68698;PMS7003;55680;48.850;2.310;2023-02-15T15:58:44;71.50;52.50;32.00
68698;PMS7003;55680;48.850;2.310;2023-02-15T16:01:12;60.75;47.75;31.00
68698;PMS7003;55680;48.850;2.310;2023-02-15T16:03:47;56.75;45.75;30.00
68698;PMS7003;55680;48.850;2.310;2023-02-15T16:06:14;61.75;48.25;31.00
68698;PMS7003;55680;48.850;2.310;2023-02-15T16:08:39;51.50;43.50;30.50
68698;PMS7003;55680;48.850;2.310;2023-02-15T16:11:13;54.00;43.33;27.67
68698;PMS7003;55680;48.850;2.310;2023-02-15T16:13:40;58.50;44.00;29.50
68698;PMS7003;55680;48.850;2.310;2023-02-15T16:16:05;61.00;44.25;28.25
68698;PMS7003;55680;48.850;2.310;2023-02-15T16:18:31;52.75;39.25;25.50
68698;PMS7003;55680;48.850;2.310;2023-02-15T16:20:58;57.00;41.25;27.00
68698;PMS7003;55680;48.850;2.310;2023-02-15T16:28:49;64.25;48.75;30.00
68698;PMS7003;55680;48.850;2.310;2023-02-15T16:31:15;56.50;41.50;26.25
68698;PMS7003;55680;48.850;2.310;2023-02-15T16:33:41;55.75;44.00;29.00
68698;PMS7003;55680;48.850;2.310;2023-02-15T16:36:26;51.50;43.00;26.75
68698;PMS7003;55680;48.850;2.310;2023-02-15T16:41:23;54.67;43.33;26.33
68698;PMS7003;55680;48.850;2.310;2023-02-15T16:43:50;57.00;43.25;26.00
68698;PMS7003;55680;48.850;2.310;2023-02-15T16:46:23;42.00;37.25;25.75